DAL2812 KSDF-KATL
Flight info
| Callsign | DAL2812 |
|---|---|
| Flight time | 1h 1m |
| Altitude | 30000 |
| Route | HIDEY1 RAMRD BNA/N0465F310 NEWBB IHAVE MTHEW CHPPR1 |
| Aircraft | B739/M-SDE2E3FGHIRWXY/LB1 |
Departure
| Time | 2026-05-07 00:01 |
|---|---|
| Airport | Louisville Muhammad Ali International Airport (KSDF) |
Arrival
| Time | 2026-05-07 01:02 |
|---|---|
| Airport | Hartsfield Jackson Atlanta International Airport (KATL) |
| Time | Latitude | Longitude | Altitude | Speed | Heading |
|---|---|---|---|---|---|
| 2026-05-06 23:24 | 38.18403 | -85.73954 | 488 ft | 0 kts | 201° |
| 2026-05-06 23:44 | 38.18412 | -85.73950 | 481 ft | 4 kts | 199° |
| 2026-05-06 23:44 | 38.18438 | -85.73941 | 482 ft | 4 kts | 188° |
| 2026-05-06 23:44 | 38.18464 | -85.73939 | 484 ft | 4 kts | 173° |
| 2026-05-06 23:45 | 38.18489 | -85.73946 | 483 ft | 4 kts | 157° |
| 2026-05-06 23:45 | 38.18512 | -85.73962 | 480 ft | 4 kts | 142° |
| 2026-05-06 23:45 | 38.18533 | -85.73983 | 480 ft | 4 kts | 145° |
| 2026-05-06 23:45 | 38.18517 | -85.73971 | 481 ft | 4 kts | 149° |
| 2026-05-06 23:46 | 38.18497 | -85.73950 | 481 ft | 4 kts | 132° |
| 2026-05-06 23:46 | 38.18485 | -85.73921 | 486 ft | 4 kts | 111° |
| 2026-05-06 23:46 | 38.18481 | -85.73902 | 482 ft | 0 kts | 103° |
| 2026-05-06 23:51 | 38.18481 | -85.73901 | 488 ft | 1 kts | 103° |
| 2026-05-06 23:51 | 38.18478 | -85.73887 | 479 ft | 3 kts | 102° |
| 2026-05-06 23:52 | 38.18472 | -85.73851 | 484 ft | 5 kts | 102° |
| 2026-05-06 23:52 | 38.18462 | -85.73794 | 482 ft | 8 kts | 108° |
| 2026-05-06 23:52 | 38.18424 | -85.73732 | 487 ft | 10 kts | 140° |
| 2026-05-06 23:52 | 38.18369 | -85.73690 | 480 ft | 9 kts | 168° |
| 2026-05-06 23:53 | 38.18317 | -85.73739 | 481 ft | 11 kts | 237° |
| 2026-05-06 23:53 | 38.18276 | -85.73826 | 484 ft | 12 kts | 240° |
| 2026-05-06 23:53 | 38.18230 | -85.73929 | 481 ft | 14 kts | 240° |
| 2026-05-06 23:53 | 38.18176 | -85.74042 | 483 ft | 16 kts | 239° |
| 2026-05-06 23:54 | 38.18126 | -85.74151 | 483 ft | 10 kts | 240° |
| 2026-05-06 23:54 | 38.18084 | -85.74207 | 482 ft | 9 kts | 190° |
| 2026-05-06 23:54 | 38.18017 | -85.74215 | 484 ft | 11 kts | 220° |
| 2026-05-06 23:54 | 38.18012 | -85.74305 | 488 ft | 11 kts | 286° |
| 2026-05-06 23:55 | 38.18039 | -85.74400 | 480 ft | 8 kts | 290° |
| 2026-05-06 23:55 | 38.18029 | -85.74471 | 480 ft | 9 kts | 220° |
| 2026-05-06 23:55 | 38.17966 | -85.74470 | 486 ft | 10 kts | 166° |
| 2026-05-06 23:55 | 38.17894 | -85.74448 | 485 ft | 12 kts | 166° |
| 2026-05-06 23:56 | 38.17807 | -85.74419 | 485 ft | 14 kts | 165° |
| 2026-05-06 23:56 | 38.17703 | -85.74385 | 484 ft | 16 kts | 166° |
| 2026-05-06 23:56 | 38.17587 | -85.74347 | 483 ft | 18 kts | 165° |
| 2026-05-06 23:56 | 38.17458 | -85.74304 | 484 ft | 20 kts | 165° |
| 2026-05-06 23:57 | 38.17315 | -85.74257 | 482 ft | 22 kts | 165° |
| 2026-05-06 23:57 | 38.17162 | -85.74206 | 482 ft | 23 kts | 165° |
| 2026-05-06 23:57 | 38.17000 | -85.74153 | 484 ft | 24 kts | 165° |
| 2026-05-06 23:57 | 38.16841 | -85.74100 | 482 ft | 23 kts | 165° |
| 2026-05-06 23:58 | 38.16689 | -85.74050 | 485 ft | 22 kts | 165° |
| 2026-05-06 23:58 | 38.16541 | -85.74001 | 480 ft | 22 kts | 166° |
| 2026-05-06 23:58 | 38.16391 | -85.73952 | 482 ft | 23 kts | 165° |
| 2026-05-06 23:58 | 38.16231 | -85.73899 | 481 ft | 24 kts | 165° |
| 2026-05-06 23:59 | 38.16065 | -85.73844 | 479 ft | 25 kts | 165° |
| 2026-05-06 23:59 | 38.15941 | -85.73803 | 479 ft | 14 kts | 166° |
| 2026-05-06 23:59 | 38.15887 | -85.73787 | 483 ft | 5 kts | 173° |
| 2026-05-06 23:59 | 38.15857 | -85.73809 | 484 ft | 6 kts | 240° |
| 2026-05-07 00:00 | 38.15837 | -85.73881 | 479 ft | 9 kts | 255° |
| 2026-05-07 00:00 | 38.15855 | -85.73937 | 476 ft | 8 kts | 338° |
| 2026-05-07 00:00 | 38.15908 | -85.73956 | 475 ft | 9 kts | 345° |
| 2026-05-07 00:00 | 38.15994 | -85.73985 | 475 ft | 38 kts | 345° |
| 2026-05-07 00:01 | 38.16716 | -85.74223 | 484 ft | 120 kts | 346° |
| 2026-05-07 00:01 | 38.17679 | -85.74538 | 530 ft | 161 kts | 345° |
| 2026-05-07 00:01 | 38.18788 | -85.74928 | 1020 ft | 165 kts | 345° |
| 2026-05-07 00:01 | 38.19900 | -85.75356 | 1678 ft | 167 kts | 343° |
| 2026-05-07 00:02 | 38.20986 | -85.75853 | 2296 ft | 168 kts | 331° |
| 2026-05-07 00:02 | 38.22030 | -85.76666 | 2628 ft | 187 kts | 330° |
| 2026-05-07 00:02 | 38.23183 | -85.77561 | 2999 ft | 199 kts | 330° |
| 2026-05-07 00:02 | 38.24418 | -85.78481 | 3328 ft | 215 kts | 330° |
| 2026-05-07 00:03 | 38.25763 | -85.79454 | 3655 ft | 229 kts | 331° |
| 2026-05-07 00:03 | 38.27199 | -85.80523 | 3891 ft | 253 kts | 325° |
| 2026-05-07 00:03 | 38.28392 | -85.82221 | 4430 ft | 263 kts | 296° |
| 2026-05-07 00:03 | 38.28679 | -85.84502 | 5277 ft | 263 kts | 265° |
| 2026-05-07 00:04 | 38.28469 | -85.86764 | 6304 ft | 256 kts | 264° |
| 2026-05-07 00:04 | 38.28212 | -85.89025 | 6978 ft | 260 kts | 253° |
| 2026-05-07 00:04 | 38.27247 | -85.90945 | 7832 ft | 260 kts | 225° |
| 2026-05-07 00:04 | 38.25787 | -85.92268 | 8751 ft | 257 kts | 220° |
| 2026-05-07 00:05 | 38.24852 | -85.93153 | 9345 ft | 250 kts | 224° |
| 2026-05-07 00:05 | 38.23463 | -85.94464 | 10233 ft | 247 kts | 223° |
| 2026-05-07 00:05 | 38.22034 | -85.95771 | 10589 ft | 263 kts | 223° |
| 2026-05-07 00:05 | 38.20418 | -85.97076 | 10738 ft | 288 kts | 215° |
| 2026-05-07 00:06 | 38.18542 | -85.98233 | 10871 ft | 311 kts | 212° |
| 2026-05-07 00:06 | 38.16518 | -85.99408 | 11010 ft | 329 kts | 211° |
| 2026-05-07 00:06 | 38.13644 | -86.01081 | 11339 ft | 347 kts | 212° |
| 2026-05-07 00:06 | 38.12189 | -86.01942 | 11645 ft | 350 kts | 212° |
| 2026-05-07 00:07 | 38.09966 | -86.03272 | 12114 ft | 356 kts | 212° |
| 2026-05-07 00:07 | 38.07728 | -86.04619 | 12712 ft | 356 kts | 212° |
| 2026-05-07 00:07 | 38.05459 | -86.05924 | 12976 ft | 361 kts | 209° |
| 2026-05-07 00:07 | 38.03074 | -86.07001 | 12992 ft | 366 kts | 206° |
| 2026-05-07 00:08 | 38.00639 | -86.07976 | 12987 ft | 367 kts | 205° |
| 2026-05-07 00:08 | 37.98204 | -86.08932 | 12992 ft | 366 kts | 205° |
| 2026-05-07 00:08 | 37.95752 | -86.09892 | 13242 ft | 371 kts | 205° |
| 2026-05-07 00:08 | 37.93288 | -86.10872 | 13897 ft | 371 kts | 205° |
| 2026-05-07 00:09 | 37.90824 | -86.11867 | 14555 ft | 370 kts | 206° |
| 2026-05-07 00:09 | 37.88387 | -86.12857 | 15308 ft | 366 kts | 207° |
| 2026-05-07 00:09 | 37.86006 | -86.13831 | 16022 ft | 364 kts | 207° |
| 2026-05-07 00:09 | 37.83572 | -86.14831 | 16686 ft | 363 kts | 207° |
| 2026-05-07 00:10 | 37.81204 | -86.15807 | 17310 ft | 363 kts | 207° |
| 2026-05-07 00:10 | 37.78804 | -86.16794 | 17951 ft | 362 kts | 207° |
| 2026-05-07 00:10 | 37.76397 | -86.17786 | 18441 ft | 365 kts | 207° |
| 2026-05-07 00:10 | 37.73979 | -86.18783 | 18907 ft | 366 kts | 207° |
| 2026-05-07 00:11 | 37.71551 | -86.19783 | 19348 ft | 368 kts | 207° |
| 2026-05-07 00:11 | 37.69108 | -86.20788 | 19769 ft | 371 kts | 208° |
| 2026-05-07 00:11 | 37.66644 | -86.21801 | 20195 ft | 373 kts | 208° |
| 2026-05-07 00:11 | 37.64175 | -86.22812 | 20585 ft | 375 kts | 208° |
| 2026-05-07 00:12 | 37.61689 | -86.23833 | 21005 ft | 376 kts | 208° |
| 2026-05-07 00:12 | 37.59188 | -86.24861 | 21394 ft | 379 kts | 208° |
| 2026-05-07 00:12 | 37.56672 | -86.25888 | 21786 ft | 382 kts | 208° |
| 2026-05-07 00:12 | 37.54133 | -86.26923 | 22172 ft | 384 kts | 208° |
| 2026-05-07 00:13 | 37.51588 | -86.27960 | 22579 ft | 385 kts | 208° |
| 2026-05-07 00:13 | 37.49036 | -86.29002 | 22951 ft | 387 kts | 208° |
| 2026-05-07 00:13 | 37.46466 | -86.30051 | 23309 ft | 389 kts | 208° |
| 2026-05-07 00:13 | 37.43886 | -86.31102 | 23656 ft | 391 kts | 208° |
| 2026-05-07 00:14 | 37.41235 | -86.32030 | 23891 ft | 400 kts | 204° |
| 2026-05-07 00:14 | 37.38496 | -86.32765 | 24175 ft | 404 kts | 202° |
| 2026-05-07 00:14 | 37.35728 | -86.33434 | 24478 ft | 406 kts | 202° |
| 2026-05-07 00:14 | 37.32948 | -86.34097 | 24786 ft | 408 kts | 202° |
| 2026-05-07 00:15 | 37.30160 | -86.34776 | 25086 ft | 408 kts | 202° |
| 2026-05-07 00:15 | 37.27370 | -86.35472 | 25382 ft | 409 kts | 203° |
| 2026-05-07 00:15 | 37.24570 | -86.36183 | 25652 ft | 411 kts | 203° |
| 2026-05-07 00:15 | 37.21769 | -86.36904 | 25927 ft | 412 kts | 203° |
| 2026-05-07 00:16 | 37.18952 | -86.37632 | 26191 ft | 414 kts | 203° |
| 2026-05-07 00:16 | 37.16129 | -86.38362 | 26389 ft | 417 kts | 203° |
| 2026-05-07 00:16 | 37.13282 | -86.39100 | 26604 ft | 419 kts | 203° |
| 2026-05-07 00:16 | 37.10422 | -86.39839 | 26882 ft | 420 kts | 203° |
| 2026-05-07 00:17 | 37.07563 | -86.40574 | 27307 ft | 417 kts | 203° |
| 2026-05-07 00:17 | 37.04729 | -86.41300 | 27789 ft | 414 kts | 203° |
| 2026-05-07 00:17 | 37.01954 | -86.42012 | 28247 ft | 412 kts | 203° |
| 2026-05-07 00:17 | 36.99155 | -86.42734 | 28645 ft | 410 kts | 203° |
| 2026-05-07 00:18 | 36.96367 | -86.43453 | 29007 ft | 409 kts | 203° |
| 2026-05-07 00:18 | 36.93543 | -86.44180 | 29271 ft | 409 kts | 204° |
| 2026-05-07 00:18 | 36.90751 | -86.44938 | 29421 ft | 411 kts | 205° |
| 2026-05-07 00:18 | 36.87967 | -86.45781 | 29640 ft | 412 kts | 206° |
| 2026-05-07 00:19 | 36.85194 | -86.46651 | 30010 ft | 410 kts | 206° |
| 2026-05-07 00:19 | 36.82456 | -86.47500 | 29980 ft | 414 kts | 204° |
| 2026-05-07 00:19 | 36.79552 | -86.47956 | 30007 ft | 426 kts | 195° |
| 2026-05-07 00:19 | 36.76567 | -86.47927 | 30019 ft | 433 kts | 190° |
| 2026-05-07 00:20 | 36.73527 | -86.47431 | 30021 ft | 445 kts | 184° |
| 2026-05-07 00:20 | 36.70474 | -86.46743 | 30016 ft | 447 kts | 184° |
| 2026-05-07 00:20 | 36.64367 | -86.45325 | 30011 ft | 446 kts | 184° |
| 2026-05-07 00:21 | 36.58265 | -86.43933 | 30020 ft | 446 kts | 184° |
| 2026-05-07 00:21 | 36.52150 | -86.42567 | 30023 ft | 446 kts | 184° |
| 2026-05-07 00:22 | 36.46035 | -86.41212 | 30034 ft | 446 kts | 184° |
| 2026-05-07 00:22 | 36.39924 | -86.39862 | 30032 ft | 446 kts | 184° |
| 2026-05-07 00:23 | 36.33795 | -86.38510 | 30030 ft | 448 kts | 184° |
| 2026-05-07 00:23 | 36.27643 | -86.37155 | 30025 ft | 450 kts | 184° |
| 2026-05-07 00:24 | 36.21474 | -86.35797 | 30018 ft | 451 kts | 184° |
| 2026-05-07 00:24 | 36.15295 | -86.34436 | 30011 ft | 451 kts | 184° |
| 2026-05-07 00:25 | 36.09102 | -86.33078 | 30015 ft | 453 kts | 184° |
| 2026-05-07 00:25 | 36.02893 | -86.31718 | 29991 ft | 454 kts | 184° |
| 2026-05-07 00:26 | 35.96668 | -86.30355 | 29984 ft | 455 kts | 184° |
| 2026-05-07 00:26 | 35.90433 | -86.28993 | 30002 ft | 455 kts | 184° |
| 2026-05-07 00:27 | 35.84238 | -86.27641 | 30014 ft | 455 kts | 184° |
| 2026-05-07 00:27 | 35.78013 | -86.26284 | 30003 ft | 454 kts | 184° |
| 2026-05-07 00:28 | 35.71796 | -86.24926 | 30023 ft | 454 kts | 184° |
| 2026-05-07 00:28 | 35.65588 | -86.23579 | 30003 ft | 452 kts | 183° |
| 2026-05-07 00:29 | 35.59403 | -86.22244 | 29991 ft | 451 kts | 183° |
| 2026-05-07 00:30 | 35.47049 | -86.19570 | 29985 ft | 450 kts | 183° |
| 2026-05-07 00:30 | 35.43963 | -86.18771 | 29921 ft | 464 kts | 174° |
| 2026-05-07 00:30 | 35.40991 | -86.16965 | 29992 ft | 491 kts | 156° |
| 2026-05-07 00:31 | 35.35587 | -86.11626 | 29981 ft | 501 kts | 151° |
| 2026-05-07 00:31 | 35.30215 | -86.06232 | 30009 ft | 498 kts | 152° |
| 2026-05-07 00:32 | 35.24782 | -86.00974 | 30019 ft | 497 kts | 153° |
| 2026-05-07 00:32 | 35.19328 | -85.95761 | 30012 ft | 498 kts | 153° |
| 2026-05-07 00:33 | 35.13913 | -85.90587 | 29969 ft | 498 kts | 150° |
| 2026-05-07 00:33 | 35.08548 | -85.85247 | 29968 ft | 494 kts | 153° |
| 2026-05-07 00:34 | 35.03070 | -85.80206 | 29962 ft | 493 kts | 153° |
| 2026-05-07 00:34 | 34.97709 | -85.74989 | 29990 ft | 485 kts | 156° |
| 2026-05-07 00:35 | 34.92230 | -85.70090 | 29951 ft | 492 kts | 152° |
| 2026-05-07 00:35 | 34.89528 | -85.67488 | 29707 ft | 499 kts | 151° |
| 2026-05-07 00:35 | 34.86794 | -85.64841 | 29437 ft | 504 kts | 151° |
| 2026-05-07 00:36 | 34.84048 | -85.62199 | 29153 ft | 501 kts | 151° |
| 2026-05-07 00:36 | 34.81305 | -85.59585 | 28893 ft | 500 kts | 151° |
| 2026-05-07 00:36 | 34.78551 | -85.56986 | 28631 ft | 502 kts | 152° |
| 2026-05-07 00:36 | 34.75782 | -85.54378 | 28368 ft | 504 kts | 151° |
| 2026-05-07 00:37 | 34.73008 | -85.51764 | 27345 ft | 508 kts | 151° |
| 2026-05-07 00:37 | 34.70238 | -85.49148 | 26797 ft | 500 kts | 151° |
| 2026-05-07 00:37 | 34.67505 | -85.46561 | 26068 ft | 497 kts | 151° |
| 2026-05-07 00:37 | 34.64792 | -85.43994 | 25411 ft | 492 kts | 151° |
| 2026-05-07 00:38 | 34.62100 | -85.41457 | 24764 ft | 488 kts | 150° |
| 2026-05-07 00:38 | 34.59444 | -85.38899 | 24148 ft | 485 kts | 150° |
| 2026-05-07 00:38 | 34.56929 | -85.36125 | 23469 ft | 495 kts | 139° |
| 2026-05-07 00:38 | 34.54768 | -85.32928 | 22789 ft | 496 kts | 135° |
| 2026-05-07 00:39 | 34.52663 | -85.29558 | 22112 ft | 494 kts | 133° |
| 2026-05-07 00:39 | 34.50650 | -85.26273 | 21506 ft | 489 kts | 133° |
| 2026-05-07 00:39 | 34.48574 | -85.23054 | 20900 ft | 480 kts | 138° |
| 2026-05-07 00:39 | 34.46351 | -85.20063 | 20299 ft | 474 kts | 140° |
| 2026-05-07 00:40 | 34.44060 | -85.17249 | 19706 ft | 467 kts | 142° |
| 2026-05-07 00:40 | 34.41794 | -85.14438 | 19106 ft | 464 kts | 141° |
| 2026-05-07 00:40 | 34.39557 | -85.11648 | 18527 ft | 458 kts | 144° |
| 2026-05-07 00:40 | 34.37086 | -85.09368 | 18033 ft | 440 kts | 153° |
| 2026-05-07 00:41 | 34.34498 | -85.07471 | 17385 ft | 429 kts | 161° |
| 2026-05-07 00:41 | 34.31811 | -85.05993 | 16837 ft | 421 kts | 164° |
| 2026-05-07 00:41 | 34.29130 | -85.04608 | 16231 ft | 417 kts | 164° |
| 2026-05-07 00:41 | 34.26468 | -85.03242 | 15655 ft | 413 kts | 164° |
| 2026-05-07 00:42 | 34.23835 | -85.01876 | 15087 ft | 410 kts | 163° |
| 2026-05-07 00:42 | 34.21232 | -85.00508 | 14545 ft | 406 kts | 163° |
| 2026-05-07 00:42 | 34.18651 | -84.99141 | 13989 ft | 403 kts | 162° |
| 2026-05-07 00:42 | 34.16091 | -84.97783 | 13392 ft | 400 kts | 162° |
| 2026-05-07 00:43 | 34.13617 | -84.96316 | 13115 ft | 395 kts | 153° |
| 2026-05-07 00:43 | 34.11448 | -84.94324 | 13038 ft | 387 kts | 146° |
| 2026-05-07 00:43 | 34.09407 | -84.92280 | 12986 ft | 374 kts | 146° |
| 2026-05-07 00:43 | 34.07465 | -84.90356 | 12978 ft | 358 kts | 147° |
| 2026-05-07 00:44 | 34.05539 | -84.88495 | 12978 ft | 342 kts | 148° |
| 2026-05-07 00:44 | 34.03734 | -84.86779 | 12981 ft | 327 kts | 148° |
| 2026-05-07 00:44 | 34.01966 | -84.85110 | 12984 ft | 322 kts | 149° |
| 2026-05-07 00:44 | 34.00203 | -84.83454 | 12995 ft | 322 kts | 149° |
| 2026-05-07 00:45 | 33.98446 | -84.81801 | 12917 ft | 318 kts | 149° |
| 2026-05-07 00:45 | 33.96707 | -84.80165 | 12653 ft | 316 kts | 149° |
| 2026-05-07 00:45 | 33.94974 | -84.78531 | 12260 ft | 317 kts | 149° |
| 2026-05-07 00:45 | 33.93239 | -84.76896 | 12018 ft | 318 kts | 149° |
| 2026-05-07 00:46 | 33.91480 | -84.75242 | 11995 ft | 322 kts | 149° |
| 2026-05-07 00:46 | 33.89722 | -84.73587 | 11995 ft | 319 kts | 148° |
| 2026-05-07 00:46 | 33.87990 | -84.71954 | 11987 ft | 315 kts | 149° |
| 2026-05-07 00:46 | 33.86263 | -84.70329 | 11968 ft | 315 kts | 149° |
| 2026-05-07 00:47 | 33.84528 | -84.68700 | 11992 ft | 317 kts | 149° |
| 2026-05-07 00:47 | 33.82788 | -84.67066 | 11974 ft | 317 kts | 149° |
| 2026-05-07 00:47 | 33.81053 | -84.65437 | 11985 ft | 317 kts | 149° |
| 2026-05-07 00:47 | 33.79321 | -84.63810 | 11978 ft | 314 kts | 149° |
| 2026-05-07 00:48 | 33.77631 | -84.62219 | 11965 ft | 299 kts | 149° |
| 2026-05-07 00:48 | 33.76046 | -84.60724 | 11962 ft | 280 kts | 150° |
| 2026-05-07 00:48 | 33.74563 | -84.59312 | 11962 ft | 267 kts | 146° |
| 2026-05-07 00:48 | 33.73483 | -84.57462 | 11974 ft | 281 kts | 112° |
| 2026-05-07 00:49 | 33.73219 | -84.55093 | 12010 ft | 293 kts | 94° |
| 2026-05-07 00:49 | 33.73238 | -84.52623 | 12008 ft | 298 kts | 92° |
| 2026-05-07 00:49 | 33.73269 | -84.50135 | 11991 ft | 295 kts | 92° |
| 2026-05-07 00:49 | 33.73288 | -84.47698 | 11781 ft | 289 kts | 93° |
| 2026-05-07 00:50 | 33.73294 | -84.45286 | 11390 ft | 289 kts | 93° |
| 2026-05-07 00:50 | 33.73295 | -84.42880 | 11033 ft | 287 kts | 93° |
| 2026-05-07 00:50 | 33.73296 | -84.40489 | 10667 ft | 285 kts | 93° |
| 2026-05-07 00:50 | 33.73297 | -84.38117 | 10317 ft | 283 kts | 93° |
| 2026-05-07 00:51 | 33.73297 | -84.35755 | 9921 ft | 282 kts | 93° |
| 2026-05-07 00:51 | 33.73296 | -84.33408 | 9544 ft | 281 kts | 92° |
| 2026-05-07 00:51 | 33.73295 | -84.31062 | 9170 ft | 279 kts | 93° |
| 2026-05-07 00:51 | 33.73296 | -84.28744 | 8811 ft | 276 kts | 93° |
| 2026-05-07 00:52 | 33.73299 | -84.26458 | 8506 ft | 272 kts | 93° |
| 2026-05-07 00:52 | 33.73302 | -84.24210 | 8165 ft | 267 kts | 93° |
| 2026-05-07 00:52 | 33.73305 | -84.21983 | 7690 ft | 267 kts | 93° |
| 2026-05-07 00:52 | 33.73306 | -84.20506 | 7406 ft | 266 kts | 93° |
| 2026-05-07 00:53 | 33.73307 | -84.18301 | 7007 ft | 263 kts | 93° |
| 2026-05-07 00:53 | 33.73308 | -84.16116 | 6598 ft | 260 kts | 93° |
| 2026-05-07 00:53 | 33.73309 | -84.13976 | 6459 ft | 254 kts | 93° |
| 2026-05-07 00:53 | 33.73311 | -84.11853 | 6303 ft | 254 kts | 93° |
| 2026-05-07 00:54 | 33.73314 | -84.09734 | 6096 ft | 253 kts | 93° |
| 2026-05-07 00:54 | 33.73308 | -84.07628 | 5729 ft | 251 kts | 98° |
| 2026-05-07 00:54 | 33.72835 | -84.05695 | 5409 ft | 233 kts | 131° |
| 2026-05-07 00:54 | 33.71702 | -84.04497 | 5181 ft | 208 kts | 165° |
| 2026-05-07 00:55 | 33.70367 | -84.04025 | 5043 ft | 197 kts | 173° |
| 2026-05-07 00:55 | 33.69030 | -84.03672 | 5017 ft | 196 kts | 176° |
| 2026-05-07 00:55 | 33.67735 | -84.03807 | 4974 ft | 183 kts | 210° |
| 2026-05-07 00:55 | 33.66860 | -84.04867 | 4986 ft | 184 kts | 242° |
| 2026-05-07 00:56 | 33.66350 | -84.06284 | 4988 ft | 186 kts | 244° |
| 2026-05-07 00:56 | 33.65839 | -84.07714 | 4977 ft | 186 kts | 244° |
| 2026-05-07 00:56 | 33.65330 | -84.09134 | 4963 ft | 185 kts | 244° |
| 2026-05-07 00:56 | 33.64949 | -84.10602 | 4954 ft | 188 kts | 264° |
| 2026-05-07 00:57 | 33.65047 | -84.12161 | 4971 ft | 187 kts | 266° |
| 2026-05-07 00:57 | 33.65034 | -84.13716 | 4975 ft | 186 kts | 264° |
| 2026-05-07 00:57 | 33.65008 | -84.15281 | 4962 ft | 190 kts | 264° |
| 2026-05-07 00:57 | 33.64994 | -84.16864 | 4733 ft | 192 kts | 264° |
| 2026-05-07 00:58 | 33.64989 | -84.18444 | 4479 ft | 186 kts | 263° |
| 2026-05-07 00:58 | 33.64987 | -84.19949 | 4266 ft | 175 kts | 263° |
| 2026-05-07 00:58 | 33.64984 | -84.21388 | 4065 ft | 172 kts | 264° |
| 2026-05-07 00:58 | 33.64974 | -84.22846 | 3850 ft | 177 kts | 264° |
| 2026-05-07 00:59 | 33.64973 | -84.25839 | 3368 ft | 177 kts | 266° |
| 2026-05-07 00:59 | 33.65005 | -84.27303 | 3144 ft | 174 kts | 263° |
| 2026-05-07 00:59 | 33.64975 | -84.28744 | 2928 ft | 172 kts | 264° |
| 2026-05-07 01:00 | 33.64965 | -84.30179 | 2706 ft | 169 kts | 263° |
| 2026-05-07 01:00 | 33.64962 | -84.31575 | 2503 ft | 164 kts | 264° |
| 2026-05-07 01:00 | 33.64963 | -84.32882 | 2299 ft | 150 kts | 264° |
| 2026-05-07 01:00 | 33.64960 | -84.34098 | 2102 ft | 145 kts | 264° |
| 2026-05-07 01:01 | 33.64958 | -84.35315 | 1921 ft | 146 kts | 265° |
| 2026-05-07 01:01 | 33.64969 | -84.36528 | 1735 ft | 144 kts | 266° |
| 2026-05-07 01:01 | 33.64963 | -84.37728 | 1565 ft | 144 kts | 266° |
| 2026-05-07 01:01 | 33.64947 | -84.38929 | 1389 ft | 145 kts | 268° |
| 2026-05-07 01:02 | 33.64956 | -84.40155 | 1195 ft | 149 kts | 266° |
| 2026-05-07 01:02 | 33.64949 | -84.41413 | 1006 ft | 151 kts | 266° |
| 2026-05-07 01:02 | 33.64954 | -84.42467 | 1006 ft | 95 kts | 271° |
| 2026-05-07 01:02 | 33.64953 | -84.43010 | 1005 ft | 43 kts | 269° |
| 2026-05-07 01:03 | 33.64909 | -84.43218 | 1006 ft | 18 kts | 247° |
| 2026-05-07 01:03 | 33.64863 | -84.43318 | 1005 ft | 11 kts | 239° |
| 2026-05-07 01:03 | 33.64843 | -84.43406 | 1005 ft | 11 kts | 270° |
| 2026-05-07 01:03 | 33.64842 | -84.43491 | 1005 ft | 10 kts | 262° |
| 2026-05-07 01:04 | 33.64795 | -84.43545 | 1006 ft | 10 kts | 208° |
| 2026-05-07 01:04 | 33.64737 | -84.43585 | 1006 ft | 9 kts | 210° |
| 2026-05-07 01:04 | 33.64682 | -84.43626 | 1005 ft | 9 kts | 210° |
| 2026-05-07 01:04 | 33.64627 | -84.43662 | 1005 ft | 9 kts | 208° |
| 2026-05-07 01:05 | 33.64583 | -84.43691 | 1005 ft | 5 kts | 208° |
| 2026-05-07 01:05 | 33.64570 | -84.43699 | 1005 ft | 0 kts | 206° |
| 2026-05-07 01:05 | 33.64564 | -84.43701 | 1005 ft | 3 kts | 198° |
| 2026-05-07 01:06 | 33.64543 | -84.43677 | 1005 ft | 7 kts | 97° |
| 2026-05-07 01:06 | 33.64542 | -84.43590 | 1006 ft | 14 kts | 89° |
| 2026-05-07 01:06 | 33.64544 | -84.43477 | 1006 ft | 10 kts | 89° |
| 2026-05-07 01:06 | 33.64497 | -84.43423 | 1005 ft | 10 kts | 181° |
| 2026-05-07 01:07 | 33.64432 | -84.43442 | 1005 ft | 10 kts | 205° |
| 2026-05-07 01:07 | 33.64366 | -84.43457 | 1005 ft | 10 kts | 180° |
| 2026-05-07 01:07 | 33.64298 | -84.43456 | 1005 ft | 10 kts | 179° |
| 2026-05-07 01:07 | 33.64227 | -84.43458 | 1005 ft | 11 kts | 181° |
| 2026-05-07 01:08 | 33.64152 | -84.43459 | 1005 ft | 11 kts | 182° |
| 2026-05-07 01:08 | 33.64075 | -84.43457 | 1005 ft | 11 kts | 180° |
| 2026-05-07 01:08 | 33.63998 | -84.43457 | 1005 ft | 9 kts | 180° |
| 2026-05-07 01:08 | 33.63948 | -84.43458 | 1005 ft | 5 kts | 180° |
| 2026-05-07 01:09 | 33.63924 | -84.43466 | 1005 ft | 4 kts | 224° |
| 2026-05-07 01:09 | 33.63919 | -84.43498 | 1005 ft | 4 kts | 266° |
| 2026-05-07 01:09 | 33.63918 | -84.43520 | 1005 ft | 0 kts | 268° |
| 2026-05-07 01:09 | 33.63917 | -84.43527 | 1005 ft | 1 kts | 268° |
| 2026-05-07 01:10 | 33.63917 | -84.43529 | 1005 ft | 0 kts | 269° |